Milford, UT

6:37 AM MDT on October 21, 2014 (GMT -0600)
Milford Municipal | Change Station
CLOSE
Current Station
Airport
Location: Milford,
Elevation: 5039 ft
Nearby Weather Stations

Elev 5039 ft 38.43 °N, 113.01 °W | Updated 45 minutes ago

Partly Cloudy
Partly Cloudy
56 °F
Feels Like 56 °F
N
12
Wind Variable Wind from WSW

Today
High -- | Low -- °F
--% Chance of Precip.
Yesterday
High -- | Low -- °F
Precip. -- in
7:46 AM 6:45 PM
Waning Crescent, 6% visible
Pressure 29.81 in
Visibility 10.0 miles
Clouds Clear
Dew Point 38 °F
Humidity 51%
Rainfall 0.00 in
Snow Depth Not available.
UV 0 out of 12
Pollen 4.20 out of 12
Air Quality Not available.
Flu Activity Sporadic
METAR KMLF 211152Z AUTO 24010KT 10SM CLR 13/03 A2997 RMK AO2 SLP095 T01330033 10139 20117 55001 TSNO

More Conditions Fewer Conditions

Pressure 29.81 in
Visibility 10.0 miles
Clouds Clear
Dew Point 38 °F
Humidity 51%
Rainfall 0.00 in
Snow Depth Not available.
UV 0 out of 12
Pollen 4.20 out of 12
Air Quality Not available.
Flu Activity Sporadic
METAR KMLF 211152Z AUTO 24010KT 10SM CLR 13/03 A2997 RMK AO2 SLP095 T01330033 10139 20117 55001 TSNO

More Conditions Fewer Conditions

10-Day Weather Forecast

Almanac

Astronomy

Oct. 21, 2014 Rise Set
Actual Time 7:46 AM MDT 6:45 PM MDT
Civil Twilight 7:19 AM MDT 7:12 PM MDT
Nautical Twilight 6:49 AM MDT 7:43 PM MDT
Astronomical Twilight 6:18 AM MDT 8:13 PM MDT
Moon 5:36 AM MDT 5:40 PM MDT
Length of Visible Light 11h 52m
Length of Day
10h 58m
Tomorrow will be 2m 20s shorter.
Waning Crescent, 6% of the Moon is Illuminated
Today
Waning Crescent
Oct 23
New
Oct 30
First Quarter
Nov 6
Full
Nov 14
Last Quarter

Today's Extremes

State Highs State Lows

Community

WunderPhotos

Upload Photos

1,763,647 photos uploaded!

Nearby

Snow Depth

Station Depth Elevation
Merchant Valley 0 in 8750 ft
Kimberly Mine 0 in 9300 ft
Box Creek 1 in 9800 ft
Webster Flat 0 in 9200 ft
Kolob 0 in 9250 ft

Earthquake Activity

City Distance Mag. Time & Date
No recent earthquake activity has been reported nearby.
Minimum magnitude displayed is 2.5.

Coastal Water Temperatures

Place Temperature
No Stations Reporting

Nearby Weather Stations